| Date | Time | Temp. (oF) | Dew Point (oF) | Rel. Hum. (%) | Press. (in.) | Wind Dir. | Wind Speed (mph) | Hourly Rainfall (in.) |
|
|---|---|---|---|---|---|---|---|---|---|
| 1 | 10/09 | 00:00 | 45 | 43 | 93 | 30.32 | SE | 0 | 0.00 |
| 2 | 10/08 | 23:00 | 46 | 43 | 91 | 30.31 | SE | 0 | 0.00 |
| 3 | 10/08 | 22:00 | 47 | 43 | 87 | 30.31 | SE | 0 | 0.00 |
| 4 | 10/08 | 21:00 | 49 | 44 | 83 | 30.29 | SE | 0 | 0.00 |
| 5 | 10/08 | 20:00 | 52 | 42 | 71 | 30.27 | ENE | 0 | 0.00 |
| 6 | 10/08 | 19:00 | 56 | 40 | 57 | 30.28 | E | 0 | 0.00 |
| 7 | 10/08 | 18:00 | 59 | 40 | 51 | 30.26 | ESE | 1 | 0.00 |
| 8 | 10/08 | 17:00 | 60 | 39 | 47 | 30.26 | NE | 2 | 0.00 |
| 9 | 10/08 | 16:00 | 61 | 39 | 46 | 30.26 | NE | 3 | 0.00 |
| 10 | 10/08 | 15:00 | 59 | 38 | 47 | 30.28 | N | 3 | 0.00 |
| 11 | 10/08 | 14:00 | 58 | 40 | 53 | 30.30 | ENE | 6 | 0.00 |
| 12 | 10/08 | 13:00 | 57 | 39 | 52 | 30.33 | NE | 8 | 0.00 |
| 13 | 10/08 | 12:00 | 56 | 39 | 54 | 30.35 | NNW | 5 | 0.00 |
| 14 | 10/08 | 11:00 | 55 | 40 | 58 | 30.35 | ENE | 7 | 0.00 |
| 15 | 10/08 | 10:00 | 53 | 39 | 61 | 30.35 | ESE | 2 | 0.00 |
| 16 | 10/08 | 09:00 | 49 | 39 | 69 | 30.34 | NNE | 2 | 0.00 |
| 17 | 10/08 | 08:00 | 45 | 37 | 76 | 30.31 | WNW | 1 | 0.00 |
| 18 | 10/08 | 07:00 | 43 | 36 | 79 | 30.30 | WNW | 1 | 0.00 |
| 19 | 10/08 | 06:00 | 45 | 37 | 76 | 30.26 | NW | 1 | 0.00 |
| 20 | 10/08 | 05:00 | 44 | 37 | 79 | 30.25 | NW | 0 | 0.00 |
| 21 | 10/08 | 04:00 | 45 | 41 | 88 | 30.22 | WNW | 0 | 0.00 |
| 22 | 10/08 | 03:00 | 47 | 41 | 80 | 30.22 | W | 0 | 0.00 |
| 23 | 10/08 | 02:00 | 50 | 40 | 71 | 30.20 | NW | 1 | 0.00 |
| 24 | 10/08 | 01:00 | 53 | 41 | 64 | 30.18 | WNW | 2 | 0.00 |